createdAt,value
2017-11-29T00:00:46.483Z,5.07
2017-11-29T00:03:14.022Z,5.04
2017-11-29T00:05:41.528Z,5.06
2017-11-29T00:08:09.036Z,5.02
2017-11-29T00:10:36.603Z,4.97
2017-11-29T00:13:04.137Z,4.94
2017-11-29T00:15:31.638Z,4.92
2017-11-29T00:17:59.150Z,4.91
2017-11-29T00:20:26.675Z,4.94
2017-11-29T00:22:54.185Z,4.93
2017-11-29T00:25:21.760Z,4.92
2017-11-29T00:27:49.309Z,4.91
2017-11-29T00:30:16.892Z,4.91
2017-11-29T00:32:44.390Z,4.92
2017-11-29T00:35:11.916Z,4.86
2017-11-29T00:37:39.408Z,4.84
2017-11-29T00:40:06.940Z,4.83
2017-11-29T00:42:34.432Z,4.79
2017-11-29T00:45:01.928Z,4.79
2017-11-29T00:47:29.497Z,4.76
2017-11-29T00:49:56.985Z,4.74
2017-11-29T00:52:24.488Z,4.81
2017-11-29T00:54:52.022Z,4.83
2017-11-29T00:57:19.527Z,4.77
2017-11-29T00:59:47.015Z,4.75
2017-11-29T01:02:14.566Z,4.77
2017-11-29T01:04:42.058Z,4.72
2017-11-29T01:07:09.551Z,4.64
2017-11-29T01:09:37.061Z,4.58
2017-11-29T01:12:04.556Z,4.55
2017-11-29T01:14:32.124Z,4.50
2017-11-29T01:16:59.621Z,4.47
2017-11-29T01:19:27.115Z,4.44
2017-11-29T01:21:54.641Z,4.40
2017-11-29T01:24:22.135Z,4.57
2017-11-29T01:26:49.826Z,4.63
2017-11-29T01:29:17.317Z,4.60
2017-11-29T01:31:44.832Z,4.45
2017-11-29T01:34:12.450Z,4.32
2017-11-29T01:36:39.950Z,4.25
2017-11-29T01:39:07.457Z,4.18
2017-11-29T01:41:35.190Z,4.13
2017-11-29T01:44:02.690Z,4.09
2017-11-29T01:46:30.186Z,4.08
2017-11-29T01:48:57.706Z,4.08
2017-11-29T01:51:25.213Z,4.09
2017-11-29T01:53:52.707Z,4.10
2017-11-29T01:56:20.257Z,4.13
2017-11-29T01:58:47.754Z,4.14
2017-11-29T02:01:15.255Z,4.17
2017-11-29T02:03:42.777Z,4.15
2017-11-29T02:06:22.122Z,4.15
2017-11-29T02:08:49.654Z,4.15
2017-11-29T02:11:17.138Z,4.14
2017-11-29T02:13:44.680Z,4.13
2017-11-29T02:16:12.219Z,4.14
2017-11-29T02:18:39.762Z,4.15
2017-11-29T02:21:07.255Z,4.14
2017-11-29T02:23:34.946Z,4.13
2017-11-29T02:26:03.281Z,4.11
2017-11-29T02:28:30.834Z,4.10
2017-11-29T02:30:58.328Z,4.12
2017-11-29T02:33:25.903Z,4.10
2017-11-29T02:35:53.469Z,3.98
2017-11-29T02:38:20.961Z,4.01
2017-11-29T02:43:55.133Z,3.93
2017-11-29T02:46:22.657Z,3.86
2017-11-29T02:48:50.152Z,3.80
2017-11-29T02:51:17.726Z,3.78
2017-11-29T02:53:45.227Z,3.74
2017-11-29T02:56:12.771Z,3.69
2017-11-29T02:58:40.304Z,3.66
2017-11-29T03:01:07.801Z,3.61
2017-11-29T03:03:35.282Z,3.58
2017-11-29T03:06:02.805Z,3.53
2017-11-29T03:08:30.296Z,3.46
2017-11-29T03:10:57.778Z,3.40
2017-11-29T03:13:25.312Z,3.36
2017-11-29T03:15:52.794Z,3.29
2017-11-29T03:18:20.371Z,3.29
2017-11-29T03:20:47.897Z,3.26
2017-11-29T03:23:15.387Z,3.26
2017-11-29T03:25:42.892Z,3.27
2017-11-29T03:28:10.435Z,3.27
2017-11-29T03:30:37.927Z,3.25
2017-11-29T03:33:05.417Z,3.22
2017-11-29T03:35:32.950Z,3.12
2017-11-29T03:38:00.538Z,3.05
2017-11-29T03:40:28.040Z,2.99
2017-11-29T03:42:55.574Z,2.97
2017-11-29T03:45:23.114Z,2.96
2017-11-29T03:47:50.606Z,2.93
2017-11-29T03:50:18.122Z,2.97
2017-11-29T03:52:45.691Z,2.98
2017-11-29T03:55:13.232Z,2.92
2017-11-29T03:57:40.809Z,2.84
2017-11-29T04:00:08.301Z,2.83
2017-11-29T04:02:35.921Z,2.77
2017-11-29T04:05:03.417Z,2.72
2017-11-29T04:07:30.914Z,2.61
2017-11-29T04:09:58.442Z,2.54
2017-11-29T04:12:25.935Z,2.50
2017-11-29T04:14:53.625Z,2.50
2017-11-29T04:17:21.174Z,2.45
2017-11-29T04:19:48.678Z,2.49
2017-11-29T04:22:16.230Z,2.46
2017-11-29T04:24:43.729Z,2.44
2017-11-29T04:27:11.332Z,2.43
2017-11-29T04:29:38.856Z,2.39
2017-11-29T04:32:06.355Z,2.38
2017-11-29T04:34:33.853Z,2.41
2017-11-29T04:37:01.414Z,2.42
2017-11-29T04:39:28.922Z,2.45
2017-11-29T04:41:56.410Z,2.53
2017-11-29T04:44:23.936Z,2.55
2017-11-29T04:46:51.489Z,2.55
2017-11-29T04:49:19.038Z,2.51
2017-11-29T04:51:46.573Z,2.48
2017-11-29T04:54:14.069Z,2.41
2017-11-29T04:56:41.613Z,2.37
2017-11-29T04:59:09.150Z,2.33
2017-11-29T05:01:36.740Z,2.22
2017-11-29T05:04:04.225Z,2.11
2017-11-29T05:06:31.759Z,2.02
2017-11-29T05:08:59.286Z,2.01
2017-11-29T05:11:26.817Z,1.98
2017-11-29T05:13:54.316Z,1.94
2017-11-29T05:16:21.825Z,1.92
2017-11-29T05:18:49.363Z,1.90
2017-11-29T05:21:16.850Z,1.90
2017-11-29T05:23:44.364Z,1.94
2017-11-29T05:26:11.943Z,2.01
2017-11-29T05:28:39.430Z,2.07
2017-11-29T05:31:06.930Z,2.11
2017-11-29T05:33:34.448Z,2.10
2017-11-29T05:36:02.002Z,2.08
2017-11-29T05:38:29.498Z,2.05
2017-11-29T05:40:57.007Z,2.01
2017-11-29T05:43:24.537Z,2.01
2017-11-29T05:45:52.033Z,1.95
2017-11-29T05:48:19.541Z,1.94
2017-11-29T05:50:47.070Z,1.92
2017-11-29T05:53:14.579Z,1.97
2017-11-29T05:55:42.079Z,1.99
2017-11-29T05:58:09.693Z,1.94
2017-11-29T06:00:37.434Z,1.96
2017-11-29T06:03:04.934Z,1.96
2017-11-29T06:05:32.481Z,1.92
2017-11-29T06:08:00.024Z,1.92
2017-11-29T06:10:27.529Z,1.98
2017-11-29T06:12:55.075Z,2.04
2017-11-29T06:15:22.587Z,2.02
2017-11-29T06:17:50.088Z,2.00
2017-11-29T06:20:17.739Z,2.03
2017-11-29T06:22:45.268Z,2.05
2017-11-29T06:25:12.831Z,2.10
2017-11-29T06:27:40.391Z,2.09
2017-11-29T06:30:07.901Z,2.11
2017-11-29T06:32:35.402Z,2.15
2017-11-29T06:35:02.989Z,2.17
2017-11-29T06:37:30.501Z,2.20
2017-11-29T06:39:58.001Z,2.17
2017-11-29T06:42:25.541Z,2.21
2017-11-29T06:44:53.045Z,2.23
2017-11-29T06:47:20.543Z,2.21
2017-11-29T06:49:48.134Z,2.21
2017-11-29T06:52:15.688Z,2.19
2017-11-29T06:54:43.211Z,2.07
2017-11-29T06:57:10.733Z,2.01
2017-11-29T06:59:38.252Z,2.04
2017-11-29T07:02:05.750Z,2.10
2017-11-29T07:04:33.286Z,2.11
2017-11-29T07:07:00.788Z,2.20
2017-11-29T07:09:28.290Z,2.31
2017-11-29T07:11:55.832Z,2.37
2017-11-29T07:14:23.335Z,2.42
2017-11-29T07:16:50.846Z,2.43
2017-11-29T07:19:18.366Z,2.44
2017-11-29T07:21:45.983Z,2.45
2017-11-29T07:24:13.482Z,2.38
2017-11-29T07:26:40.981Z,2.42
2017-11-29T07:29:08.663Z,2.39
2017-11-29T07:31:36.162Z,2.46
2017-11-29T07:34:03.673Z,2.48
2017-11-29T07:36:31.214Z,2.52
2017-11-29T07:38:58.727Z,2.59
2017-11-29T07:41:26.224Z,2.71
2017-11-29T07:43:53.827Z,2.78
2017-11-29T07:46:21.333Z,2.80
2017-11-29T07:48:48.844Z,2.80
2017-11-29T07:51:16.395Z,2.85
2017-11-29T07:53:43.884Z,2.87
2017-11-29T07:56:11.427Z,2.92
2017-11-29T07:58:38.953Z,3.00
2017-11-29T08:01:06.450Z,2.95
2017-11-29T08:03:33.985Z,2.84
2017-11-29T08:06:01.480Z,2.86
2017-11-29T08:08:28.986Z,2.86
2017-11-29T08:10:56.510Z,2.99
2017-11-29T08:13:24.019Z,3.05
2017-11-29T08:15:51.534Z,3.09
2017-11-29T08:18:19.079Z,2.96
2017-11-29T08:20:46.648Z,2.83
2017-11-29T08:23:14.189Z,2.73
2017-11-29T08:25:41.924Z,2.75
2017-11-29T08:28:09.434Z,2.83
2017-11-29T08:30:36.940Z,2.85
2017-11-29T08:33:04.513Z,2.85
2017-11-29T08:35:32.012Z,2.82
2017-11-29T08:37:59.514Z,2.80
2017-11-29T08:40:27.040Z,2.83
2017-11-29T08:42:54.617Z,2.82
2017-11-29T08:45:22.121Z,2.87
2017-11-29T08:47:49.665Z,2.95
2017-11-29T08:50:17.180Z,2.95
2017-11-29T08:52:44.678Z,2.93
2017-11-29T08:55:12.215Z,2.94
2017-11-29T08:57:39.720Z,3.01
2017-11-29T09:00:07.218Z,3.04
2017-11-29T09:02:34.751Z,3.03
2017-11-29T09:05:02.253Z,3.07
2017-11-29T09:07:29.908Z,3.08
2017-11-29T09:09:57.463Z,3.06
2017-11-29T09:12:25.030Z,3.28
2017-11-29T09:14:52.529Z,3.71
2017-11-29T09:17:20.191Z,4.27
2017-11-29T09:19:47.944Z,4.54
2017-11-29T09:22:15.560Z,4.59
2017-11-29T09:24:43.109Z,4.30
2017-11-29T09:27:10.609Z,4.05
2017-11-29T09:29:38.211Z,3.84
2017-11-29T09:32:05.910Z,3.71
2017-11-29T09:34:33.669Z,3.64
2017-11-29T09:37:01.318Z,3.70
2017-11-29T09:39:29.005Z,3.76
2017-11-29T09:41:56.646Z,3.84
2017-11-29T09:44:24.142Z,3.87
2017-11-29T09:46:51.673Z,3.86
2017-11-29T09:49:19.336Z,3.90
2017-11-29T09:51:46.852Z,3.93
2017-11-29T09:54:14.686Z,3.92
2017-11-29T09:56:42.202Z,3.95
2017-11-29T09:59:09.844Z,3.92
2017-11-29T10:01:37.554Z,3.97
2017-11-29T10:04:05.054Z,4.06
2017-11-29T10:06:32.674Z,4.12
2017-11-29T10:09:00.216Z,4.13
2017-11-29T10:11:27.728Z,4.14
2017-11-29T10:13:55.338Z,4.22
2017-11-29T10:16:23.017Z,4.23
2017-11-29T10:18:50.529Z,4.27
2017-11-29T10:21:18.033Z,4.27
2017-11-29T10:23:45.785Z,4.32
2017-11-29T10:26:13.345Z,4.39
2017-11-29T10:28:40.988Z,4.46
2017-11-29T10:31:08.544Z,4.49
2017-11-29T10:33:36.042Z,4.54
2017-11-29T10:36:03.538Z,4.59
2017-11-29T10:38:31.148Z,4.64
2017-11-29T10:40:58.898Z,4.69
2017-11-29T10:43:26.449Z,4.73
2017-11-29T10:45:54.197Z,4.82
2017-11-29T10:48:21.859Z,4.84
2017-11-29T10:50:49.406Z,4.89
2017-11-29T10:53:17.002Z,4.94
2017-11-29T10:55:44.501Z,4.92
2017-11-29T10:58:12.053Z,4.95
2017-11-29T11:00:39.791Z,4.99
2017-11-29T11:03:07.293Z,5.01
2017-11-29T11:05:34.840Z,5.07
2017-11-29T11:08:02.359Z,5.08
2017-11-29T11:10:29.987Z,5.09
2017-11-29T11:12:57.518Z,5.14
2017-11-29T11:15:25.010Z,5.18
2017-11-29T11:17:52.569Z,5.29
2017-11-29T11:20:20.101Z,5.32
2017-11-29T11:22:47.594Z,5.37
2017-11-29T11:25:15.245Z,5.36
2017-11-29T11:27:42.942Z,5.36
2017-11-29T11:30:10.516Z,5.38
2017-11-29T11:32:38.165Z,5.41
2017-11-29T11:35:05.821Z,5.46
2017-11-29T11:37:33.466Z,5.52
2017-11-29T11:40:00.980Z,5.45
2017-11-29T11:42:28.719Z,5.44
2017-11-29T11:44:56.271Z,5.47
2017-11-29T11:47:23.942Z,5.44
2017-11-29T11:49:51.693Z,5.44
2017-11-29T11:52:19.320Z,5.45
2017-11-29T11:54:46.826Z,5.54
2017-11-29T11:57:14.422Z,5.59
2017-11-29T11:59:41.946Z,5.58
2017-11-29T12:02:09.469Z,5.51
2017-11-29T12:04:37.010Z,5.45
2017-11-29T12:07:04.518Z,5.42
2017-11-29T12:09:32.023Z,5.49
2017-11-29T12:11:59.563Z,5.57
2017-11-29T12:14:27.092Z,5.59
2017-11-29T12:16:54.596Z,5.59
2017-11-29T12:19:22.159Z,5.63
2017-11-29T12:21:49.660Z,5.62
2017-11-29T12:24:17.162Z,5.59
2017-11-29T12:26:44.725Z,5.62
2017-11-29T12:29:12.230Z,5.66
2017-11-29T12:31:39.769Z,5.70
2017-11-29T12:34:07.266Z,5.61
2017-11-29T12:36:34.801Z,5.60
2017-11-29T12:39:02.481Z,5.58
2017-11-29T12:41:29.985Z,5.52
2017-11-29T12:43:57.496Z,5.49
2017-11-29T12:46:25.161Z,5.48
2017-11-29T12:49:04.453Z,5.42
2017-11-29T12:51:32.036Z,5.39
2017-11-29T12:53:59.537Z,5.32
2017-11-29T12:56:27.043Z,5.33
2017-11-29T12:58:54.582Z,5.37
2017-11-29T13:01:22.089Z,5.38
2017-11-29T13:03:49.581Z,5.38
2017-11-29T13:06:17.120Z,5.41
2017-11-29T13:08:44.628Z,5.41
2017-11-29T13:11:12.123Z,5.36
2017-11-29T13:13:39.669Z,5.33
2017-11-29T13:16:07.163Z,5.29
2017-11-29T13:18:34.691Z,5.31
2017-11-29T13:21:02.232Z,5.35
2017-11-29T13:23:29.741Z,5.38
2017-11-29T13:25:57.261Z,5.41
2017-11-29T13:28:24.820Z,5.37
2017-11-29T13:30:52.350Z,5.34
2017-11-29T13:33:19.853Z,5.33
2017-11-29T13:35:47.389Z,5.30
2017-11-29T13:38:14.917Z,5.23
2017-11-29T13:40:42.418Z,5.16
2017-11-29T13:43:09.970Z,5.10
2017-11-29T13:45:37.510Z,5.06
2017-11-29T13:48:05.021Z,5.05
2017-11-29T13:50:32.542Z,5.01
2017-11-29T13:53:00.039Z,4.96
2017-11-29T13:58:01.467Z,4.89
2017-11-29T14:00:29.017Z,4.86
2017-11-29T14:02:56.705Z,4.78
2017-11-29T14:05:24.316Z,4.74
2017-11-29T14:07:51.864Z,4.76
2017-11-29T14:10:19.369Z,4.70
2017-11-29T14:12:46.912Z,4.64
2017-11-29T14:15:14.480Z,4.58
2017-11-29T14:17:41.985Z,4.53
2017-11-29T14:20:10.287Z,4.47
2017-11-29T14:22:37.845Z,4.49
2017-11-29T14:25:05.346Z,4.52
2017-11-29T14:27:32.901Z,4.50
2017-11-29T14:30:00.453Z,4.47
2017-11-29T14:32:27.957Z,4.45
2017-11-29T14:34:55.464Z,4.45
2017-11-29T14:37:22.982Z,4.43
2017-11-29T14:39:50.487Z,4.39
2017-11-29T14:42:18.010Z,4.34
2017-11-29T14:44:45.515Z,4.27
2017-11-29T14:47:13.175Z,4.19
2017-11-29T14:49:40.704Z,4.13
2017-11-29T14:52:08.220Z,4.12
2017-11-29T14:54:35.742Z,4.11
2017-11-29T14:57:03.316Z,4.14
2017-11-29T14:59:30.809Z,4.14
2017-11-29T15:01:58.314Z,4.13
2017-11-29T15:04:25.841Z,4.13
2017-11-29T15:06:53.354Z,4.08
2017-11-29T15:09:20.857Z,4.03
2017-11-29T15:11:48.389Z,3.98
2017-11-29T15:14:15.889Z,3.95
2017-11-29T15:16:43.569Z,3.94
2017-11-29T15:19:11.068Z,3.89
2017-11-29T15:21:38.561Z,3.87
2017-11-29T15:24:13.707Z,3.84
2017-11-29T15:26:41.270Z,3.82
2017-11-29T15:29:08.781Z,3.79
2017-11-29T15:31:36.338Z,3.78
2017-11-29T15:34:03.850Z,3.79
2017-11-29T15:36:31.365Z,3.77
2017-11-29T15:38:58.909Z,3.70
2017-11-29T15:41:26.419Z,3.67
2017-11-29T15:43:54.058Z,3.67
2017-11-29T15:46:21.613Z,3.74
2017-11-29T15:48:49.122Z,3.73
2017-11-29T15:51:16.666Z,3.69
2017-11-29T15:53:44.266Z,3.65
2017-11-29T15:56:11.770Z,3.61
2017-11-29T15:58:39.281Z,3.59
2017-11-29T16:01:07.029Z,3.56
2017-11-29T16:03:34.537Z,3.59
2017-11-29T16:06:02.034Z,3.62
2017-11-29T16:08:29.577Z,3.61
2017-11-29T16:10:57.087Z,3.63
2017-11-29T16:13:24.635Z,3.64
2017-11-29T16:15:52.149Z,3.63
2017-11-29T16:18:19.667Z,3.62
2017-11-29T16:20:47.248Z,3.65
2017-11-29T16:23:14.757Z,3.63
2017-11-29T16:25:42.261Z,3.60
2017-11-29T16:28:09.806Z,3.57
2017-11-29T16:30:37.367Z,3.54
2017-11-29T16:33:04.882Z,3.52
2017-11-29T16:35:32.442Z,3.49
2017-11-29T16:37:59.942Z,3.46
2017-11-29T16:40:27.691Z,3.45
2017-11-29T16:42:55.610Z,3.41
2017-11-29T16:45:23.124Z,3.38
2017-11-29T16:47:50.630Z,3.43
2017-11-29T16:50:18.187Z,3.45
2017-11-29T16:52:45.704Z,3.44
2017-11-29T16:55:13.219Z,3.41
2017-11-29T16:57:40.770Z,3.41
2017-11-29T17:00:08.417Z,3.48
2017-11-29T17:02:35.925Z,3.48
2017-11-29T17:05:03.465Z,3.49
2017-11-29T17:07:30.978Z,3.49
2017-11-29T17:09:58.523Z,3.49
2017-11-29T17:12:26.040Z,3.48
2017-11-29T17:14:53.573Z,3.46
2017-11-29T17:17:21.085Z,3.44
2017-11-29T17:19:48.584Z,3.40
2017-11-29T17:22:16.116Z,3.40
2017-11-29T17:24:43.620Z,3.41
2017-11-29T17:27:11.135Z,3.43
2017-11-29T17:29:50.558Z,3.42
2017-11-29T17:32:18.055Z,3.42
2017-11-29T17:34:45.560Z,3.39
2017-11-29T17:37:13.097Z,3.41
2017-11-29T17:39:40.599Z,3.42
2017-11-29T17:42:08.100Z,3.43
2017-11-29T17:44:35.633Z,3.43
2017-11-29T17:47:03.128Z,3.42
2017-11-29T17:49:30.624Z,3.41
2017-11-29T17:51:58.154Z,3.41
2017-11-29T17:54:25.683Z,3.40
2017-11-29T17:56:53.193Z,3.37
2017-11-29T17:59:20.754Z,3.37
2017-11-29T18:01:48.272Z,3.34
2017-11-29T18:04:15.913Z,3.35
2017-11-29T18:06:43.440Z,3.37
2017-11-29T18:09:11.026Z,3.38
2017-11-29T18:11:38.564Z,3.38
2017-11-29T18:14:06.062Z,3.38
2017-11-29T18:16:33.589Z,3.39
2017-11-29T18:19:01.106Z,3.38
2017-11-29T18:21:28.598Z,3.38
2017-11-29T18:23:56.154Z,3.36
2017-11-29T18:26:23.791Z,3.31
2017-11-29T18:28:51.287Z,3.28
2017-11-29T18:31:18.834Z,3.24
2017-11-29T18:33:46.344Z,3.21
2017-11-29T18:36:13.841Z,3.19
2017-11-29T18:38:41.469Z,3.50
2017-11-29T18:41:08.974Z,3.60
2017-11-29T18:43:36.489Z,3.46
2017-11-29T18:46:04.009Z,3.52
2017-11-29T18:48:31.537Z,3.44
2017-11-29T18:50:59.181Z,3.33
2017-11-29T18:53:26.675Z,3.24
2017-11-29T18:55:54.193Z,3.22
2017-11-29T18:58:21.752Z,3.14
2017-11-29T19:00:49.267Z,3.09
2017-11-29T19:05:50.755Z,2.97
2017-11-29T19:08:18.329Z,2.97
2017-11-29T19:10:45.885Z,2.99
2017-11-29T19:13:13.446Z,2.99
2017-11-29T19:15:40.993Z,2.95
2017-11-29T19:18:08.490Z,2.91
2017-11-29T19:20:35.990Z,2.88
2017-11-29T19:23:03.563Z,2.87
2017-11-29T19:25:31.062Z,2.88
2017-11-29T19:27:58.608Z,2.87
2017-11-29T19:30:26.184Z,2.87
2017-11-29T19:32:53.727Z,2.85
2017-11-29T19:35:21.290Z,2.84
2017-11-29T19:37:48.781Z,2.84
2017-11-29T19:40:16.320Z,2.80
2017-11-29T19:42:43.834Z,2.77
2017-11-29T19:45:11.424Z,2.76
2017-11-29T19:47:38.979Z,2.69
2017-11-29T19:50:06.505Z,2.64
2017-11-29T19:52:34.019Z,2.61
2017-11-29T19:55:01.558Z,2.59
2017-11-29T19:57:29.063Z,2.54
2017-11-29T19:59:56.561Z,2.54
2017-11-29T20:02:24.138Z,2.53
2017-11-29T20:04:51.696Z,2.55
2017-11-29T20:07:19.194Z,2.57
2017-11-29T20:09:46.712Z,2.59
2017-11-29T20:12:14.246Z,2.60
2017-11-29T20:14:41.831Z,2.62
2017-11-29T20:17:09.321Z,2.59
2017-11-29T20:19:36.843Z,2.64
2017-11-29T20:22:04.343Z,2.62
2017-11-29T20:24:31.968Z,2.61
2017-11-29T20:26:59.476Z,2.66
2017-11-29T20:29:27.069Z,2.66
2017-11-29T20:31:54.596Z,2.68
2017-11-29T20:34:22.123Z,2.71
2017-11-29T20:36:49.668Z,2.74
2017-11-29T20:39:17.184Z,2.77
2017-11-29T20:41:44.765Z,2.76
2017-11-29T20:44:12.338Z,2.76
2017-11-29T20:46:39.858Z,2.74
2017-11-29T20:49:07.358Z,2.77
2017-11-29T20:51:34.897Z,2.83
2017-11-29T20:54:02.462Z,2.82
2017-11-29T20:56:29.959Z,2.82
2017-11-29T20:58:57.501Z,2.82
2017-11-29T21:01:25.053Z,2.84
2017-11-29T21:03:52.590Z,2.85
2017-11-29T21:06:20.166Z,2.80
2017-11-29T21:08:47.717Z,2.79
2017-11-29T21:11:15.214Z,2.80
2017-11-29T21:13:42.780Z,2.81
2017-11-29T21:16:10.284Z,2.80
2017-11-29T21:18:37.789Z,2.82
2017-11-29T21:21:05.405Z,2.82
2017-11-29T21:23:32.904Z,2.83
2017-11-29T21:26:00.406Z,2.83
2017-11-29T21:28:27.949Z,2.83
2017-11-29T21:30:55.450Z,2.77
2017-11-29T21:33:22.969Z,2.75
2017-11-29T21:35:50.550Z,2.74
2017-11-29T21:38:18.048Z,2.66
2017-11-29T21:40:45.541Z,2.59
2017-11-29T21:43:13.069Z,2.54
2017-11-29T21:45:40.581Z,2.61
2017-11-29T21:48:08.088Z,2.63
2017-11-29T21:50:35.609Z,2.60
2017-11-29T21:53:03.105Z,2.52
2017-11-29T21:55:30.651Z,2.47
2017-11-29T21:57:58.158Z,2.43
2017-11-29T22:00:25.653Z,2.44
2017-11-29T22:02:53.193Z,2.44
2017-11-29T22:05:20.689Z,2.41
2017-11-29T22:07:48.213Z,2.44
2017-11-29T22:10:15.753Z,2.40
2017-11-29T22:12:43.257Z,2.41
2017-11-29T22:15:10.753Z,2.41
2017-11-29T22:17:38.320Z,2.38
2017-11-29T22:20:05.815Z,2.47
2017-11-29T22:22:33.318Z,2.52
2017-11-29T22:25:01.249Z,2.58
2017-11-29T22:27:28.768Z,2.62
2017-11-29T22:29:56.261Z,2.61
2017-11-29T22:32:23.809Z,2.61
2017-11-29T22:34:51.306Z,2.59
2017-11-29T22:37:18.827Z,2.54
2017-11-29T22:39:46.354Z,2.49
2017-11-29T22:42:13.859Z,2.53
2017-11-29T22:44:41.354Z,2.58
2017-11-29T22:47:09.385Z,2.62
2017-11-29T22:49:36.879Z,2.62
2017-11-29T22:52:04.396Z,2.58
2017-11-29T22:54:31.957Z,2.53
2017-11-29T22:56:59.461Z,2.52
2017-11-29T22:59:27.283Z,2.41
2017-11-29T23:01:54.817Z,2.32
2017-11-29T23:04:22.317Z,2.21
2017-11-29T23:06:49.860Z,2.17
2017-11-29T23:09:17.363Z,2.16
2017-11-29T23:11:44.860Z,2.15
2017-11-29T23:14:12.397Z,2.08
2017-11-29T23:16:39.900Z,2.06
2017-11-29T23:19:07.398Z,2.09
2017-11-29T23:21:34.996Z,2.10
2017-11-29T23:24:02.505Z,2.12
2017-11-29T23:26:30.003Z,2.13
2017-11-29T23:28:57.536Z,2.15
2017-11-29T23:31:25.064Z,2.18
2017-11-29T23:33:52.592Z,2.22
2017-11-29T23:36:20.091Z,2.22
2017-11-29T23:38:47.806Z,2.29
2017-11-29T23:41:15.331Z,2.28
2017-11-29T23:43:42.834Z,2.31
2017-11-29T23:46:10.368Z,2.36
2017-11-29T23:48:37.859Z,2.40
2017-11-29T23:51:05.360Z,2.40
2017-11-29T23:53:32.922Z,2.33
2017-11-29T23:56:00.422Z,2.26
2017-11-29T23:58:27.923Z,2.19
